sensor_id;sensor_type;location;lat;lon;timestamp;temperature;humidity
12845;DHT22;68700;48.534;9.196;2024-02-26T00:02:06;7.80;99.90
12845;DHT22;68700;48.534;9.196;2024-02-26T00:05:30;7.90;99.90
12845;DHT22;68700;48.534;9.196;2024-02-26T00:08:52;8.10;99.90
12845;DHT22;68700;48.534;9.196;2024-02-26T00:12:14;8.20;99.90
12845;DHT22;68700;48.534;9.196;2024-02-26T00:15:36;8.20;99.90
12845;DHT22;68700;48.534;9.196;2024-02-26T00:18:58;8.20;99.90
12845;DHT22;68700;48.534;9.196;2024-02-26T00:22:22;8.30;99.90
12845;DHT22;68700;48.534;9.196;2024-02-26T00:25:44;8.30;99.90
12845;DHT22;68700;48.534;9.196;2024-02-26T00:29:06;8.30;99.90
12845;DHT22;68700;48.534;9.196;2024-02-26T00:32:28;8.20;99.90
12845;DHT22;68700;48.534;9.196;2024-02-26T00:35:50;8.20;99.90
12845;DHT22;68700;48.534;9.196;2024-02-26T00:39:13;8.20;99.90
12845;DHT22;68700;48.534;9.196;2024-02-26T00:42:35;8.10;99.90
12845;DHT22;68700;48.534;9.196;2024-02-26T00:45:57;7.90;99.90
12845;DHT22;68700;48.534;9.196;2024-02-26T00:49:19;7.90;99.90
12845;DHT22;68700;48.534;9.196;2024-02-26T00:52:41;7.80;99.90
12845;DHT22;68700;48.534;9.196;2024-02-26T00:56:05;7.80;99.90
12845;DHT22;68700;48.534;9.196;2024-02-26T00:59:27;7.70;99.90
12845;DHT22;68700;48.534;9.196;2024-02-26T01:02:49;7.60;99.90
12845;DHT22;68700;48.534;9.196;2024-02-26T01:06:10;7.50;99.90
12845;DHT22;68700;48.534;9.196;2024-02-26T01:09:32;7.40;99.90
12845;DHT22;68700;48.534;9.196;2024-02-26T01:12:56;7.40;99.90
12845;DHT22;68700;48.534;9.196;2024-02-26T01:16:18;7.30;99.90
12845;DHT22;68700;48.534;9.196;2024-02-26T01:19:40;7.20;99.90
12845;DHT22;68700;48.534;9.196;2024-02-26T01:23:01;7.20;99.90
12845;DHT22;68700;48.534;9.196;2024-02-26T01:26:24;7.30;99.90
12845;DHT22;68700;48.534;9.196;2024-02-26T01:29:47;7.50;99.90
12845;DHT22;68700;48.534;9.196;2024-02-26T01:33:09;8.10;99.90
12845;DHT22;68700;48.534;9.196;2024-02-26T01:36:30;8.20;99.90
12845;DHT22;68700;48.534;9.196;2024-02-26T01:39:52;8.20;99.90
12845;DHT22;68700;48.534;9.196;2024-02-26T01:43:14;8.30;99.90
12845;DHT22;68700;48.534;9.196;2024-02-26T01:46:37;8.30;99.90
12845;DHT22;68700;48.534;9.196;2024-02-26T01:49:59;8.20;99.90
12845;DHT22;68700;48.534;9.196;2024-02-26T01:53:21;8.10;99.90
12845;DHT22;68700;48.534;9.196;2024-02-26T01:56:43;8.00;99.90
12845;DHT22;68700;48.534;9.196;2024-02-26T02:00:07;8.00;99.90
12845;DHT22;68700;48.534;9.196;2024-02-26T02:03:30;7.90;99.90
12845;DHT22;68700;48.534;9.196;2024-02-26T02:06:52;7.80;99.90
12845;DHT22;68700;48.534;9.196;2024-02-26T02:10:15;7.80;99.90
12845;DHT22;68700;48.534;9.196;2024-02-26T02:13:38;7.60;99.90
12845;DHT22;68700;48.534;9.196;2024-02-26T02:17:00;7.60;99.90
12845;DHT22;68700;48.534;9.196;2024-02-26T02:20:26;7.60;99.90
12845;DHT22;68700;48.534;9.196;2024-02-26T02:23:53;7.60;99.90
12845;DHT22;68700;48.534;9.196;2024-02-26T02:27:14;7.60;99.90
12845;DHT22;68700;48.534;9.196;2024-02-26T02:30:38;7.40;99.90
12845;DHT22;68700;48.534;9.196;2024-02-26T02:34:00;7.40;99.90
12845;DHT22;68700;48.534;9.196;2024-02-26T02:37:24;7.40;99.90
12845;DHT22;68700;48.534;9.196;2024-02-26T02:40:46;7.30;99.90
12845;DHT22;68700;48.534;9.196;2024-02-26T02:44:08;7.30;99.90
12845;DHT22;68700;48.534;9.196;2024-02-26T02:47:29;7.20;99.90
12845;DHT22;68700;48.534;9.196;2024-02-26T02:50:51;7.20;99.90
12845;DHT22;68700;48.534;9.196;2024-02-26T02:54:15;7.10;99.90
12845;DHT22;68700;48.534;9.196;2024-02-26T02:57:37;7.00;99.90
12845;DHT22;68700;48.534;9.196;2024-02-26T03:01:01;6.90;99.90
12845;DHT22;68700;48.534;9.196;2024-02-26T03:04:23;6.90;99.90
12845;DHT22;68700;48.534;9.196;2024-02-26T03:07:45;6.90;99.90
12845;DHT22;68700;48.534;9.196;2024-02-26T03:11:13;6.90;99.90
12845;DHT22;68700;48.534;9.196;2024-02-26T03:14:35;6.80;99.90
12845;DHT22;68700;48.534;9.196;2024-02-26T03:17:57;6.80;99.90
12845;DHT22;68700;48.534;9.196;2024-02-26T03:21:19;6.80;99.90
12845;DHT22;68700;48.534;9.196;2024-02-26T03:24:41;6.80;99.90
12845;DHT22;68700;48.534;9.196;2024-02-26T03:28:05;6.70;99.90
12845;DHT22;68700;48.534;9.196;2024-02-26T03:31:26;6.70;99.90
12845;DHT22;68700;48.534;9.196;2024-02-26T03:34:48;6.60;99.90
12845;DHT22;68700;48.534;9.196;2024-02-26T03:38:10;6.70;99.90
12845;DHT22;68700;48.534;9.196;2024-02-26T03:41:32;6.70;99.90
12845;DHT22;68700;48.534;9.196;2024-02-26T03:44:55;6.70;99.90
12845;DHT22;68700;48.534;9.196;2024-02-26T03:48:17;6.70;99.90
12845;DHT22;68700;48.534;9.196;2024-02-26T03:51:39;6.60;99.90
12845;DHT22;68700;48.534;9.196;2024-02-26T03:55:01;6.60;99.90
12845;DHT22;68700;48.534;9.196;2024-02-26T03:58:22;6.60;99.90
12845;DHT22;68700;48.534;9.196;2024-02-26T04:01:46;6.70;99.90
12845;DHT22;68700;48.534;9.196;2024-02-26T04:05:09;6.60;99.90
12845;DHT22;68700;48.534;9.196;2024-02-26T04:08:31;6.60;99.90
12845;DHT22;68700;48.534;9.196;2024-02-26T04:11:53;6.50;99.90
12845;DHT22;68700;48.534;9.196;2024-02-26T04:15:15;6.40;99.90
12845;DHT22;68700;48.534;9.196;2024-02-26T04:18:38;6.40;99.90
12845;DHT22;68700;48.534;9.196;2024-02-26T04:22:01;6.40;99.90
12845;DHT22;68700;48.534;9.196;2024-02-26T04:25:23;6.40;1.00
12845;DHT22;68700;48.534;9.196;2024-02-26T04:28:44;6.40;1.00
12845;DHT22;68700;48.534;9.196;2024-02-26T04:32:06;6.40;1.00
12845;DHT22;68700;48.534;9.196;2024-02-26T04:35:29;6.30;1.00
12845;DHT22;68700;48.534;9.196;2024-02-26T04:38:51;6.30;1.00
12845;DHT22;68700;48.534;9.196;2024-02-26T04:42:15;6.30;1.00
12845;DHT22;68700;48.534;9.196;2024-02-26T04:45:37;6.30;1.00
12845;DHT22;68700;48.534;9.196;2024-02-26T04:48:58;6.30;1.00
12845;DHT22;68700;48.534;9.196;2024-02-26T04:52:22;6.40;99.90
12845;DHT22;68700;48.534;9.196;2024-02-26T04:55:44;6.40;99.90
12845;DHT22;68700;48.534;9.196;2024-02-26T04:59:05;6.40;99.90
12845;DHT22;68700;48.534;9.196;2024-02-26T05:02:27;6.40;99.90
12845;DHT22;68700;48.534;9.196;2024-02-26T05:05:50;6.40;99.90
12845;DHT22;68700;48.534;9.196;2024-02-26T05:09:13;6.40;1.40
12845;DHT22;68700;48.534;9.196;2024-02-26T05:12:35;6.40;99.90
12845;DHT22;68700;48.534;9.196;2024-02-26T05:15:57;6.40;99.90
12845;DHT22;68700;48.534;9.196;2024-02-26T05:19:19;6.30;99.90
12845;DHT22;68700;48.534;9.196;2024-02-26T05:22:42;6.30;99.90
12845;DHT22;68700;48.534;9.196;2024-02-26T05:26:05;6.30;99.90
12845;DHT22;68700;48.534;9.196;2024-02-26T05:29:27;6.30;1.00
12845;DHT22;68700;48.534;9.196;2024-02-26T05:32:49;6.30;1.00
12845;DHT22;68700;48.534;9.196;2024-02-26T05:36:17;6.30;1.00
12845;DHT22;68700;48.534;9.196;2024-02-26T05:39:39;6.20;1.00
12845;DHT22;68700;48.534;9.196;2024-02-26T05:43:02;6.20;1.00
12845;DHT22;68700;48.534;9.196;2024-02-26T05:46:24;6.20;1.00
12845;DHT22;68700;48.534;9.196;2024-02-26T05:49:47;6.10;1.00
12845;DHT22;68700;48.534;9.196;2024-02-26T05:53:09;5.90;1.00
12845;DHT22;68700;48.534;9.196;2024-02-26T05:56:31;5.70;1.00
12845;DHT22;68700;48.534;9.196;2024-02-26T05:59:54;5.60;1.00
12845;DHT22;68700;48.534;9.196;2024-02-26T06:03:16;5.50;1.00
12845;DHT22;68700;48.534;9.196;2024-02-26T06:06:38;5.40;1.00
12845;DHT22;68700;48.534;9.196;2024-02-26T06:10:00;5.40;1.00
12845;DHT22;68700;48.534;9.196;2024-02-26T06:13:22;5.40;1.00
12845;DHT22;68700;48.534;9.196;2024-02-26T06:16:45;5.50;1.00
12845;DHT22;68700;48.534;9.196;2024-02-26T06:20:08;5.50;1.00
12845;DHT22;68700;48.534;9.196;2024-02-26T06:23:33;5.50;1.00
12845;DHT22;68700;48.534;9.196;2024-02-26T06:26:54;5.30;1.00
12845;DHT22;68700;48.534;9.196;2024-02-26T06:30:16;5.30;1.00
12845;DHT22;68700;48.534;9.196;2024-02-26T06:33:40;5.30;1.00
12845;DHT22;68700;48.534;9.196;2024-02-26T06:37:02;5.30;1.00
12845;DHT22;68700;48.534;9.196;2024-02-26T06:40:24;5.40;1.00
12845;DHT22;68700;48.534;9.196;2024-02-26T06:43:46;5.50;1.00
12845;DHT22;68700;48.534;9.196;2024-02-26T06:47:07;5.60;1.00
12845;DHT22;68700;48.534;9.196;2024-02-26T06:50:31;5.70;1.00
12845;DHT22;68700;48.534;9.196;2024-02-26T06:53:52;5.80;1.00
12845;DHT22;68700;48.534;9.196;2024-02-26T06:57:14;5.90;1.00
12845;DHT22;68700;48.534;9.196;2024-02-26T07:00:36;6.00;1.00
12845;DHT22;68700;48.534;9.196;2024-02-26T07:03:58;6.20;1.00
12845;DHT22;68700;48.534;9.196;2024-02-26T07:07:21;6.30;1.00
12845;DHT22;68700;48.534;9.196;2024-02-26T07:10:44;6.40;1.00
12845;DHT22;68700;48.534;9.196;2024-02-26T07:14:06;6.60;1.00
12845;DHT22;68700;48.534;9.196;2024-02-26T07:17:28;6.80;1.00
12845;DHT22;68700;48.534;9.196;2024-02-26T07:20:49;6.80;1.00
12845;DHT22;68700;48.534;9.196;2024-02-26T07:24:13;6.80;1.00
12845;DHT22;68700;48.534;9.196;2024-02-26T07:27:35;6.80;1.00
12845;DHT22;68700;48.534;9.196;2024-02-26T07:30:57;6.90;1.00
12845;DHT22;68700;48.534;9.196;2024-02-26T07:34:18;6.90;1.00
12845;DHT22;68700;48.534;9.196;2024-02-26T07:37:40;7.00;1.00
12845;DHT22;68700;48.534;9.196;2024-02-26T07:41:04;7.00;1.00
12845;DHT22;68700;48.534;9.196;2024-02-26T07:44:26;7.10;1.00
12845;DHT22;68700;48.534;9.196;2024-02-26T07:47:48;7.20;1.00
12845;DHT22;68700;48.534;9.196;2024-02-26T07:51:12;7.30;1.00
12845;DHT22;68700;48.534;9.196;2024-02-26T07:54:34;7.30;1.00
12845;DHT22;68700;48.534;9.196;2024-02-26T07:57:57;7.40;1.00
12845;DHT22;68700;48.534;9.196;2024-02-26T08:01:19;7.50;1.00
12845;DHT22;68700;48.534;9.196;2024-02-26T08:04:41;7.50;1.00
12845;DHT22;68700;48.534;9.196;2024-02-26T08:08:03;7.60;1.00
12845;DHT22;68700;48.534;9.196;2024-02-26T08:11:25;7.70;1.00
12845;DHT22;68700;48.534;9.196;2024-02-26T08:14:48;7.80;1.00
12845;DHT22;68700;48.534;9.196;2024-02-26T08:18:09;8.00;1.00
12845;DHT22;68700;48.534;9.196;2024-02-26T08:21:31;8.10;1.00
12845;DHT22;68700;48.534;9.196;2024-02-26T08:24:53;8.30;1.00
12845;DHT22;68700;48.534;9.196;2024-02-26T08:28:15;8.50;1.00
12845;DHT22;68700;48.534;9.196;2024-02-26T08:31:39;8.60;1.00
12845;DHT22;68700;48.534;9.196;2024-02-26T08:35:01;8.70;1.00
12845;DHT22;68700;48.534;9.196;2024-02-26T08:38:23;8.60;1.00
12845;DHT22;68700;48.534;9.196;2024-02-26T08:41:45;8.60;1.00
12845;DHT22;68700;48.534;9.196;2024-02-26T08:45:08;8.50;1.00
12845;DHT22;68700;48.534;9.196;2024-02-26T08:48:31;8.40;1.00
12845;DHT22;68700;48.534;9.196;2024-02-26T08:51:53;8.30;1.00
12845;DHT22;68700;48.534;9.196;2024-02-26T08:55:16;8.40;1.00
12845;DHT22;68700;48.534;9.196;2024-02-26T08:58:38;8.50;1.00
12845;DHT22;68700;48.534;9.196;2024-02-26T09:01:59;8.50;1.00
12845;DHT22;68700;48.534;9.196;2024-02-26T09:05:23;8.60;1.00
12845;DHT22;68700;48.534;9.196;2024-02-26T09:08:44;8.60;1.00
12845;DHT22;68700;48.534;9.196;2024-02-26T09:12:06;8.50;1.00
12845;DHT22;68700;48.534;9.196;2024-02-26T09:15:28;8.60;1.00
12845;DHT22;68700;48.534;9.196;2024-02-26T09:18:50;8.70;1.00
12845;DHT22;68700;48.534;9.196;2024-02-26T09:22:13;8.60;1.00
12845;DHT22;68700;48.534;9.196;2024-02-26T09:25:35;8.70;1.00
12845;DHT22;68700;48.534;9.196;2024-02-26T09:28:57;8.90;1.00
12845;DHT22;68700;48.534;9.196;2024-02-26T09:32:19;9.00;1.00
12845;DHT22;68700;48.534;9.196;2024-02-26T09:35:41;9.10;1.00
12845;DHT22;68700;48.534;9.196;2024-02-26T09:39:04;9.10;1.00
12845;DHT22;68700;48.534;9.196;2024-02-26T09:42:31;9.20;1.00
12845;DHT22;68700;48.534;9.196;2024-02-26T09:45:54;9.60;99.90
12845;DHT22;68700;48.534;9.196;2024-02-26T09:49:16;9.80;99.90
12845;DHT22;68700;48.534;9.196;2024-02-26T09:52:39;10.30;99.90
12845;DHT22;68700;48.534;9.196;2024-02-26T09:56:04;10.60;99.90
12845;DHT22;68700;48.534;9.196;2024-02-26T09:59:29;11.10;99.90
12845;DHT22;68700;48.534;9.196;2024-02-26T10:02:54;11.50;99.90
12845;DHT22;68700;48.534;9.196;2024-02-26T10:06:17;11.80;99.90
12845;DHT22;68700;48.534;9.196;2024-02-26T10:09:39;12.90;99.90
12845;DHT22;68700;48.534;9.196;2024-02-26T10:13:04;13.00;99.90
12845;DHT22;68700;48.534;9.196;2024-02-26T10:16:30;12.70;99.90
12845;DHT22;68700;48.534;9.196;2024-02-26T10:19:52;12.20;99.90
12845;DHT22;68700;48.534;9.196;2024-02-26T10:23:17;12.00;99.90
12845;DHT22;68700;48.534;9.196;2024-02-26T10:26:45;12.50;99.90
12845;DHT22;68700;48.534;9.196;2024-02-26T10:30:16;12.80;99.90
12845;DHT22;68700;48.534;9.196;2024-02-26T10:33:39;12.40;99.90
12845;DHT22;68700;48.534;9.196;2024-02-26T10:37:01;12.00;99.90
12845;DHT22;68700;48.534;9.196;2024-02-26T10:40:24;11.90;99.90
12845;DHT22;68700;48.534;9.196;2024-02-26T10:43:47;12.00;99.90
12845;DHT22;68700;48.534;9.196;2024-02-26T10:47:10;11.80;99.90
12845;DHT22;68700;48.534;9.196;2024-02-26T10:50:32;11.80;99.90
12845;DHT22;68700;48.534;9.196;2024-02-26T10:54:06;12.00;99.90
12845;DHT22;68700;48.534;9.196;2024-02-26T10:57:35;12.10;99.90
12845;DHT22;68700;48.534;9.196;2024-02-26T11:00:58;11.90;99.90
12845;DHT22;68700;48.534;9.196;2024-02-26T11:04:22;12.00;99.90
12845;DHT22;68700;48.534;9.196;2024-02-26T11:07:45;12.20;99.90
12845;DHT22;68700;48.534;9.196;2024-02-26T11:11:08;11.80;99.90
12845;DHT22;68700;48.534;9.196;2024-02-26T11:14:34;12.00;99.90
12845;DHT22;68700;48.534;9.196;2024-02-26T11:17:57;12.30;99.90
12845;DHT22;68700;48.534;9.196;2024-02-26T11:21:21;12.30;99.90
12845;DHT22;68700;48.534;9.196;2024-02-26T11:24:48;12.30;99.90
12845;DHT22;68700;48.534;9.196;2024-02-26T11:28:13;12.50;99.90
12845;DHT22;68700;48.534;9.196;2024-02-26T11:31:37;12.60;99.90
12845;DHT22;68700;48.534;9.196;2024-02-26T11:34:59;13.00;99.90
12845;DHT22;68700;48.534;9.196;2024-02-26T11:38:24;13.10;99.90
12845;DHT22;68700;48.534;9.196;2024-02-26T11:41:47;12.90;99.90
12845;DHT22;68700;48.534;9.196;2024-02-26T11:49:32;13.20;99.90
12845;DHT22;68700;48.534;9.196;2024-02-26T11:53:19;13.20;99.90
12845;DHT22;68700;48.534;9.196;2024-02-26T11:56:42;14.00;99.90
12845;DHT22;68700;48.534;9.196;2024-02-26T12:00:13;14.60;99.90
12845;DHT22;68700;48.534;9.196;2024-02-26T12:03:39;15.20;99.90
12845;DHT22;68700;48.534;9.196;2024-02-26T12:07:02;15.60;99.90
12845;DHT22;68700;48.534;9.196;2024-02-26T12:10:25;16.80;99.90
12845;DHT22;68700;48.534;9.196;2024-02-26T12:13:50;16.60;99.90
12845;DHT22;68700;48.534;9.196;2024-02-26T12:17:20;16.70;99.90
12845;DHT22;68700;48.534;9.196;2024-02-26T12:20:42;16.00;99.90
12845;DHT22;68700;48.534;9.196;2024-02-26T12:24:10;15.80;99.90
12845;DHT22;68700;48.534;9.196;2024-02-26T12:27:32;15.80;99.90
12845;DHT22;68700;48.534;9.196;2024-02-26T12:30:56;15.50;99.90
12845;DHT22;68700;48.534;9.196;2024-02-26T12:34:20;15.30;99.90
12845;DHT22;68700;48.534;9.196;2024-02-26T12:37:43;15.40;99.90
12845;DHT22;68700;48.534;9.196;2024-02-26T12:41:05;16.00;99.90
12845;DHT22;68700;48.534;9.196;2024-02-26T12:44:28;16.70;99.90
12845;DHT22;68700;48.534;9.196;2024-02-26T12:47:51;16.60;99.90
12845;DHT22;68700;48.534;9.196;2024-02-26T12:51:14;16.30;99.90
12845;DHT22;68700;48.534;9.196;2024-02-26T12:54:37;16.30;99.90
12845;DHT22;68700;48.534;9.196;2024-02-26T12:57:59;16.10;99.90
12845;DHT22;68700;48.534;9.196;2024-02-26T13:01:23;15.60;99.90
12845;DHT22;68700;48.534;9.196;2024-02-26T13:04:47;15.10;99.90
12845;DHT22;68700;48.534;9.196;2024-02-26T13:08:09;15.00;99.90
12845;DHT22;68700;48.534;9.196;2024-02-26T13:11:31;14.80;99.90
12845;DHT22;68700;48.534;9.196;2024-02-26T13:14:59;14.80;99.90
12845;DHT22;68700;48.534;9.196;2024-02-26T13:18:21;14.80;99.90
12845;DHT22;68700;48.534;9.196;2024-02-26T13:21:44;14.80;99.90
12845;DHT22;68700;48.534;9.196;2024-02-26T13:25:07;14.70;99.90
12845;DHT22;68700;48.534;9.196;2024-02-26T13:28:29;14.70;99.90
12845;DHT22;68700;48.534;9.196;2024-02-26T13:31:54;14.70;99.90
12845;DHT22;68700;48.534;9.196;2024-02-26T13:35:16;14.70;99.90
12845;DHT22;68700;48.534;9.196;2024-02-26T13:38:40;14.80;99.90
12845;DHT22;68700;48.534;9.196;2024-02-26T13:42:12;14.70;99.90
12845;DHT22;68700;48.534;9.196;2024-02-26T13:45:34;15.00;99.90
12845;DHT22;68700;48.534;9.196;2024-02-26T13:48:56;15.30;99.90
12845;DHT22;68700;48.534;9.196;2024-02-26T13:52:18;15.10;99.90
12845;DHT22;68700;48.534;9.196;2024-02-26T13:55:42;15.40;99.90
12845;DHT22;68700;48.534;9.196;2024-02-26T13:59:04;15.70;99.90
12845;DHT22;68700;48.534;9.196;2024-02-26T14:02:26;16.10;99.90
12845;DHT22;68700;48.534;9.196;2024-02-26T14:05:48;16.40;99.90
12845;DHT22;68700;48.534;9.196;2024-02-26T14:09:10;16.30;99.90
12845;DHT22;68700;48.534;9.196;2024-02-26T14:12:40;16.30;99.90
12845;DHT22;68700;48.534;9.196;2024-02-26T14:16:04;16.30;99.90
12845;DHT22;68700;48.534;9.196;2024-02-26T14:19:26;16.90;99.90
12845;DHT22;68700;48.534;9.196;2024-02-26T14:22:48;18.20;99.90
12845;DHT22;68700;48.534;9.196;2024-02-26T14:26:10;19.30;99.90
12845;DHT22;68700;48.534;9.196;2024-02-26T14:29:34;19.90;99.90
12845;DHT22;68700;48.534;9.196;2024-02-26T14:32:56;19.50;99.90
12845;DHT22;68700;48.534;9.196;2024-02-26T14:36:17;18.80;99.90
12845;DHT22;68700;48.534;9.196;2024-02-26T14:39:39;17.90;99.90
12845;DHT22;68700;48.534;9.196;2024-02-26T14:43:01;17.20;99.90
12845;DHT22;68700;48.534;9.196;2024-02-26T14:46:26;16.80;99.90
12845;DHT22;68700;48.534;9.196;2024-02-26T14:49:48;16.50;99.90
12845;DHT22;68700;48.534;9.196;2024-02-26T14:53:12;16.10;99.90
12845;DHT22;68700;48.534;9.196;2024-02-26T14:56:34;15.50;99.90
12845;DHT22;68700;48.534;9.196;2024-02-26T14:59:55;15.10;99.90
12845;DHT22;68700;48.534;9.196;2024-02-26T15:03:19;14.90;99.90
12845;DHT22;68700;48.534;9.196;2024-02-26T15:06:40;14.90;99.90
12845;DHT22;68700;48.534;9.196;2024-02-26T15:10:03;14.90;99.90
12845;DHT22;68700;48.534;9.196;2024-02-26T15:13:24;14.80;99.90
12845;DHT22;68700;48.534;9.196;2024-02-26T15:16:46;14.60;99.90
12845;DHT22;68700;48.534;9.196;2024-02-26T15:20:11;14.20;99.90
12845;DHT22;68700;48.534;9.196;2024-02-26T15:23:32;14.00;99.90
12845;DHT22;68700;48.534;9.196;2024-02-26T15:26:55;13.60;99.90
12845;DHT22;68700;48.534;9.196;2024-02-26T15:30:17;13.50;99.90
12845;DHT22;68700;48.534;9.196;2024-02-26T15:33:39;13.40;99.90
12845;DHT22;68700;48.534;9.196;2024-02-26T15:37:03;13.40;99.90
12845;DHT22;68700;48.534;9.196;2024-02-26T15:40:25;13.20;99.90
12845;DHT22;68700;48.534;9.196;2024-02-26T15:43:48;13.10;99.90
12845;DHT22;68700;48.534;9.196;2024-02-26T15:47:11;13.00;99.90
12845;DHT22;68700;48.534;9.196;2024-02-26T15:50:32;12.90;99.90
12845;DHT22;68700;48.534;9.196;2024-02-26T15:53:56;12.90;99.90
12845;DHT22;68700;48.534;9.196;2024-02-26T15:57:19;12.80;99.90
12845;DHT22;68700;48.534;9.196;2024-02-26T16:00:41;12.60;99.90
12845;DHT22;68700;48.534;9.196;2024-02-26T16:04:03;12.60;99.90
12845;DHT22;68700;48.534;9.196;2024-02-26T16:07:30;12.50;99.90
12845;DHT22;68700;48.534;9.196;2024-02-26T16:10:54;12.30;99.90
12845;DHT22;68700;48.534;9.196;2024-02-26T16:14:24;12.30;99.90
12845;DHT22;68700;48.534;9.196;2024-02-26T16:17:48;12.00;99.90
12845;DHT22;68700;48.534;9.196;2024-02-26T16:21:11;11.90;99.90
12845;DHT22;68700;48.534;9.196;2024-02-26T16:24:33;11.70;99.90
12845;DHT22;68700;48.534;9.196;2024-02-26T16:27:58;11.70;99.90
12845;DHT22;68700;48.534;9.196;2024-02-26T16:31:20;11.60;99.90
12845;DHT22;68700;48.534;9.196;2024-02-26T16:34:42;11.50;99.90
12845;DHT22;68700;48.534;9.196;2024-02-26T16:38:04;11.50;99.90
12845;DHT22;68700;48.534;9.196;2024-02-26T16:41:26;11.40;99.90
12845;DHT22;68700;48.534;9.196;2024-02-26T16:44:49;11.30;99.90
12845;DHT22;68700;48.534;9.196;2024-02-26T16:48:11;11.20;99.90
12845;DHT22;68700;48.534;9.196;2024-02-26T16:51:33;11.10;99.90
12845;DHT22;68700;48.534;9.196;2024-02-26T16:54:58;11.10;99.90
12845;DHT22;68700;48.534;9.196;2024-02-26T16:58:20;10.90;99.90
12845;DHT22;68700;48.534;9.196;2024-02-26T17:01:46;10.90;99.90
12845;DHT22;68700;48.534;9.196;2024-02-26T17:05:08;10.80;99.90
12845;DHT22;68700;48.534;9.196;2024-02-26T17:08:30;10.70;99.90
12845;DHT22;68700;48.534;9.196;2024-02-26T17:11:54;10.70;99.90
12845;DHT22;68700;48.534;9.196;2024-02-26T17:15:16;10.70;99.90
12845;DHT22;68700;48.534;9.196;2024-02-26T17:18:40;10.60;99.90
12845;DHT22;68700;48.534;9.196;2024-02-26T17:22:01;10.50;99.90
12845;DHT22;68700;48.534;9.196;2024-02-26T17:25:23;10.50;99.90
12845;DHT22;68700;48.534;9.196;2024-02-26T17:28:45;10.50;99.90
12845;DHT22;68700;48.534;9.196;2024-02-26T17:32:07;10.50;99.90
12845;DHT22;68700;48.534;9.196;2024-02-26T17:35:30;10.50;99.90
12845;DHT22;68700;48.534;9.196;2024-02-26T17:38:52;10.40;99.90
12845;DHT22;68700;48.534;9.196;2024-02-26T17:42:14;10.40;99.90
12845;DHT22;68700;48.534;9.196;2024-02-26T17:45:36;10.30;99.90
12845;DHT22;68700;48.534;9.196;2024-02-26T17:48:58;10.20;99.90
12845;DHT22;68700;48.534;9.196;2024-02-26T17:52:21;10.10;99.90
12845;DHT22;68700;48.534;9.196;2024-02-26T17:55:43;10.00;99.90
12845;DHT22;68700;48.534;9.196;2024-02-26T17:59:05;10.00;1.00
12845;DHT22;68700;48.534;9.196;2024-02-26T18:02:27;9.90;1.00
12845;DHT22;68700;48.534;9.196;2024-02-26T18:05:49;9.90;1.00
12845;DHT22;68700;48.534;9.196;2024-02-26T18:09:13;9.90;1.00
12845;DHT22;68700;48.534;9.196;2024-02-26T18:12:35;9.90;1.00
12845;DHT22;68700;48.534;9.196;2024-02-26T18:15:57;9.80;1.00
12845;DHT22;68700;48.534;9.196;2024-02-26T18:19:19;9.80;1.00
12845;DHT22;68700;48.534;9.196;2024-02-26T18:22:40;9.70;1.00
12845;DHT22;68700;48.534;9.196;2024-02-26T18:26:04;9.60;1.00
12845;DHT22;68700;48.534;9.196;2024-02-26T18:29:26;9.60;1.00
12845;DHT22;68700;48.534;9.196;2024-02-26T18:32:47;9.60;1.00
12845;DHT22;68700;48.534;9.196;2024-02-26T18:36:09;9.50;1.00
12845;DHT22;68700;48.534;9.196;2024-02-26T18:39:31;9.50;1.00
12845;DHT22;68700;48.534;9.196;2024-02-26T18:42:54;9.40;1.00
12845;DHT22;68700;48.534;9.196;2024-02-26T18:46:16;9.30;1.00
12845;DHT22;68700;48.534;9.196;2024-02-26T18:49:39;9.30;1.00
12845;DHT22;68700;48.534;9.196;2024-02-26T18:53:00;9.30;1.00
12845;DHT22;68700;48.534;9.196;2024-02-26T18:56:22;9.20;1.00
12845;DHT22;68700;48.534;9.196;2024-02-26T18:59:45;9.10;1.00
12845;DHT22;68700;48.534;9.196;2024-02-26T19:03:10;9.10;1.00
12845;DHT22;68700;48.534;9.196;2024-02-26T19:06:32;9.10;1.00
12845;DHT22;68700;48.534;9.196;2024-02-26T19:09:56;9.10;1.00
12845;DHT22;68700;48.534;9.196;2024-02-26T19:13:18;9.00;1.00
12845;DHT22;68700;48.534;9.196;2024-02-26T19:16:41;9.00;1.00
12845;DHT22;68700;48.534;9.196;2024-02-26T19:20:04;8.90;1.00
12845;DHT22;68700;48.534;9.196;2024-02-26T19:23:26;8.80;1.00
12845;DHT22;68700;48.534;9.196;2024-02-26T19:26:47;8.80;1.00
12845;DHT22;68700;48.534;9.196;2024-02-26T19:30:11;8.90;1.00
12845;DHT22;68700;48.534;9.196;2024-02-26T19:33:34;8.80;1.00
12845;DHT22;68700;48.534;9.196;2024-02-26T19:36:56;8.80;1.00
12845;DHT22;68700;48.534;9.196;2024-02-26T19:40:22;8.80;1.00
12845;DHT22;68700;48.534;9.196;2024-02-26T19:43:44;8.90;1.00
12845;DHT22;68700;48.534;9.196;2024-02-26T19:47:06;8.90;1.00
12845;DHT22;68700;48.534;9.196;2024-02-26T19:50:29;8.90;1.00
12845;DHT22;68700;48.534;9.196;2024-02-26T19:53:51;9.00;1.00
12845;DHT22;68700;48.534;9.196;2024-02-26T19:57:13;9.10;1.00
12845;DHT22;68700;48.534;9.196;2024-02-26T20:00:34;9.10;1.00
12845;DHT22;68700;48.534;9.196;2024-02-26T20:03:56;9.10;1.00
12845;DHT22;68700;48.534;9.196;2024-02-26T20:07:20;9.10;1.00
12845;DHT22;68700;48.534;9.196;2024-02-26T20:10:41;9.00;1.00
12845;DHT22;68700;48.534;9.196;2024-02-26T20:14:04;9.10;1.00
12845;DHT22;68700;48.534;9.196;2024-02-26T20:17:26;9.10;1.00
12845;DHT22;68700;48.534;9.196;2024-02-26T20:20:47;9.00;1.00
12845;DHT22;68700;48.534;9.196;2024-02-26T20:24:11;8.90;1.00
12845;DHT22;68700;48.534;9.196;2024-02-26T20:27:33;8.90;1.00
12845;DHT22;68700;48.534;9.196;2024-02-26T20:30:55;8.70;1.00
12845;DHT22;68700;48.534;9.196;2024-02-26T20:34:17;8.70;1.00
12845;DHT22;68700;48.534;9.196;2024-02-26T20:37:39;8.60;1.00
12845;DHT22;68700;48.534;9.196;2024-02-26T20:41:04;8.60;1.00
12845;DHT22;68700;48.534;9.196;2024-02-26T20:44:25;8.50;1.00
12845;DHT22;68700;48.534;9.196;2024-02-26T20:47:47;8.40;1.00
12845;DHT22;68700;48.534;9.196;2024-02-26T20:51:11;8.40;1.00
12845;DHT22;68700;48.534;9.196;2024-02-26T20:54:33;8.30;1.00
12845;DHT22;68700;48.534;9.196;2024-02-26T20:57:56;8.20;1.00
12845;DHT22;68700;48.534;9.196;2024-02-26T21:01:19;8.20;1.00
12845;DHT22;68700;48.534;9.196;2024-02-26T21:04:41;8.20;1.00
12845;DHT22;68700;48.534;9.196;2024-02-26T21:08:05;8.20;1.00
12845;DHT22;68700;48.534;9.196;2024-02-26T21:11:27;8.10;1.00
12845;DHT22;68700;48.534;9.196;2024-02-26T21:14:50;8.10;1.00
12845;DHT22;68700;48.534;9.196;2024-02-26T21:18:14;8.10;1.00
12845;DHT22;68700;48.534;9.196;2024-02-26T21:21:36;8.10;1.00
12845;DHT22;68700;48.534;9.196;2024-02-26T21:24:59;8.10;1.00
12845;DHT22;68700;48.534;9.196;2024-02-26T21:28:20;8.00;1.00
12845;DHT22;68700;48.534;9.196;2024-02-26T21:31:44;8.00;1.00
12845;DHT22;68700;48.534;9.196;2024-02-26T21:35:08;8.10;1.00
12845;DHT22;68700;48.534;9.196;2024-02-26T21:38:29;8.10;1.00
12845;DHT22;68700;48.534;9.196;2024-02-26T21:41:51;8.00;1.00
12845;DHT22;68700;48.534;9.196;2024-02-26T21:45:13;8.00;1.00
12845;DHT22;68700;48.534;9.196;2024-02-26T21:48:42;8.00;1.00